Morges, Ohio
Current Conditions -  °F | °C
As of 6:53 PM on Friday 19 Dec 2014 (Local Time) from KPHD Reporting Station
Overcast Overcast  
Wind Chill: 26°   Ceiling: 2500
Heat Index: 31°   Visibility: 10mi
Dew Point: 23°   Wind: 5mph
Humidity: 72%   Direction: 260°W
Pressure: 30.29"   Gusts: NA
Location:  40.65°N, 81.2986°W
Report Text: KPHD 192353Z AUTO 26004KT 10SM OVC025 M01/M05 A3029 RMK AO2 SLP269 T10061050 10000 21006 53013
Loading
Personal Weather Stations






























Interactive Weather Map New forecast layout! Learn more

10-Day Weather Forecast

Advertisements
Track Severe Weather on mobile